sensor_id;sensor_type;location;lat;lon;timestamp;P1;durP1;ratioP1;P2;durP2;ratioP2
13291;SDS011;6714;53.056;8.690;2023-02-22T00:01:07;25.93;;;16.93;;
13291;SDS011;6714;53.056;8.690;2023-02-22T00:03:58;22.00;;;15.70;;
13291;SDS011;6714;53.056;8.690;2023-02-22T00:06:40;20.70;;;15.03;;
13291;SDS011;6714;53.056;8.690;2023-02-22T00:09:24;23.77;;;15.87;;
13291;SDS011;6714;53.056;8.690;2023-02-22T00:12:06;21.00;;;15.30;;
13291;SDS011;6714;53.056;8.690;2023-02-22T00:14:49;21.60;;;15.87;;
13291;SDS011;6714;53.056;8.690;2023-02-22T00:17:32;22.47;;;15.63;;
13291;SDS011;6714;53.056;8.690;2023-02-22T00:20:15;22.23;;;15.40;;
13291;SDS011;6714;53.056;8.690;2023-02-22T00:22:58;25.53;;;16.90;;
13291;SDS011;6714;53.056;8.690;2023-02-22T00:25:40;21.83;;;15.70;;
13291;SDS011;6714;53.056;8.690;2023-02-22T00:28:23;22.90;;;15.67;;
13291;SDS011;6714;53.056;8.690;2023-02-22T00:31:05;22.83;;;14.87;;
13291;SDS011;6714;53.056;8.690;2023-02-22T00:33:49;22.07;;;15.83;;
13291;SDS011;6714;53.056;8.690;2023-02-22T00:36:32;22.23;;;15.23;;
13291;SDS011;6714;53.056;8.690;2023-02-22T00:39:14;18.80;;;13.37;;
13291;SDS011;6714;53.056;8.690;2023-02-22T00:41:56;19.43;;;14.00;;
13291;SDS011;6714;53.056;8.690;2023-02-22T00:44:38;19.53;;;14.13;;
13291;SDS011;6714;53.056;8.690;2023-02-22T00:47:21;18.87;;;13.80;;
13291;SDS011;6714;53.056;8.690;2023-02-22T00:50:07;18.60;;;13.57;;
13291;SDS011;6714;53.056;8.690;2023-02-22T00:52:50;20.47;;;15.23;;
13291;SDS011;6714;53.056;8.690;2023-02-22T00:55:33;20.03;;;14.93;;
13291;SDS011;6714;53.056;8.690;2023-02-22T00:58:16;19.23;;;13.97;;
13291;SDS011;6714;53.056;8.690;2023-02-22T01:00:58;21.07;;;15.37;;
13291;SDS011;6714;53.056;8.690;2023-02-22T01:03:41;19.07;;;14.70;;
13291;SDS011;6714;53.056;8.690;2023-02-22T01:06:24;21.50;;;15.40;;
13291;SDS011;6714;53.056;8.690;2023-02-22T01:09:06;17.07;;;13.40;;
13291;SDS011;6714;53.056;8.690;2023-02-22T01:11:51;17.87;;;13.50;;
13291;SDS011;6714;53.056;8.690;2023-02-22T01:14:35;20.70;;;15.47;;
13291;SDS011;6714;53.056;8.690;2023-02-22T01:17:19;20.60;;;14.70;;
13291;SDS011;6714;53.056;8.690;2023-02-22T01:20:01;18.27;;;13.10;;
13291;SDS011;6714;53.056;8.690;2023-02-22T01:22:46;22.93;;;15.17;;
13291;SDS011;6714;53.056;8.690;2023-02-22T01:25:29;21.17;;;15.80;;
13291;SDS011;6714;53.056;8.690;2023-02-22T01:28:11;19.83;;;14.93;;
13291;SDS011;6714;53.056;8.690;2023-02-22T01:30:54;21.73;;;16.60;;
13291;SDS011;6714;53.056;8.690;2023-02-22T01:33:36;17.47;;;13.77;;
13291;SDS011;6714;53.056;8.690;2023-02-22T01:36:19;17.70;;;13.23;;
13291;SDS011;6714;53.056;8.690;2023-02-22T01:39:03;19.93;;;14.47;;
13291;SDS011;6714;53.056;8.690;2023-02-22T01:41:45;18.43;;;13.67;;
13291;SDS011;6714;53.056;8.690;2023-02-22T01:44:29;19.17;;;13.77;;
13291;SDS011;6714;53.056;8.690;2023-02-22T01:47:11;18.07;;;13.50;;
13291;SDS011;6714;53.056;8.690;2023-02-22T01:49:53;19.97;;;14.33;;
13291;SDS011;6714;53.056;8.690;2023-02-22T01:52:36;22.97;;;15.87;;
13291;SDS011;6714;53.056;8.690;2023-02-22T01:55:19;21.60;;;16.10;;
13291;SDS011;6714;53.056;8.690;2023-02-22T01:58:02;19.40;;;14.97;;
13291;SDS011;6714;53.056;8.690;2023-02-22T02:00:45;20.47;;;15.40;;
13291;SDS011;6714;53.056;8.690;2023-02-22T02:03:28;19.90;;;13.83;;
13291;SDS011;6714;53.056;8.690;2023-02-22T02:06:12;20.40;;;14.37;;
13291;SDS011;6714;53.056;8.690;2023-02-22T02:08:56;22.77;;;16.00;;
13291;SDS011;6714;53.056;8.690;2023-02-22T02:11:41;19.83;;;13.53;;
13291;SDS011;6714;53.056;8.690;2023-02-22T02:14:23;20.40;;;14.90;;
13291;SDS011;6714;53.056;8.690;2023-02-22T02:17:06;21.40;;;16.10;;
13291;SDS011;6714;53.056;8.690;2023-02-22T02:19:51;17.43;;;13.00;;
13291;SDS011;6714;53.056;8.690;2023-02-22T02:22:40;17.90;;;14.30;;
13291;SDS011;6714;53.056;8.690;2023-02-22T02:25:33;20.33;;;15.03;;
13291;SDS011;6714;53.056;8.690;2023-02-22T02:34:17;17.70;;;13.37;;
13291;SDS011;6714;53.056;8.690;2023-02-22T02:37:02;24.03;;;16.60;;
13291;SDS011;6714;53.056;8.690;2023-02-22T02:39:50;20.43;;;15.20;;
13291;SDS011;6714;53.056;8.690;2023-02-22T02:42:35;22.87;;;16.03;;
13291;SDS011;6714;53.056;8.690;2023-02-22T02:45:21;21.93;;;15.83;;
13291;SDS011;6714;53.056;8.690;2023-02-22T02:48:04;23.23;;;16.63;;
13291;SDS011;6714;53.056;8.690;2023-02-22T02:50:50;23.27;;;16.87;;
13291;SDS011;6714;53.056;8.690;2023-02-22T02:53:34;19.83;;;14.57;;
13291;SDS011;6714;53.056;8.690;2023-02-22T02:56:17;22.10;;;16.27;;
13291;SDS011;6714;53.056;8.690;2023-02-22T02:59:02;23.23;;;15.97;;
13291;SDS011;6714;53.056;8.690;2023-02-22T03:01:48;19.83;;;14.43;;
13291;SDS011;6714;53.056;8.690;2023-02-22T03:04:36;22.77;;;16.17;;
13291;SDS011;6714;53.056;8.690;2023-02-22T03:07:27;21.73;;;15.77;;
13291;SDS011;6714;53.056;8.690;2023-02-22T03:10:16;20.20;;;15.23;;
13291;SDS011;6714;53.056;8.690;2023-02-22T03:13:03;21.30;;;15.97;;
13291;SDS011;6714;53.056;8.690;2023-02-22T03:15:51;23.23;;;17.07;;
13291;SDS011;6714;53.056;8.690;2023-02-22T03:18:38;22.47;;;16.43;;
13291;SDS011;6714;53.056;8.690;2023-02-22T03:21:24;26.73;;;18.57;;
13291;SDS011;6714;53.056;8.690;2023-02-22T03:24:13;21.40;;;16.10;;
13291;SDS011;6714;53.056;8.690;2023-02-22T03:26:59;23.97;;;16.57;;
13291;SDS011;6714;53.056;8.690;2023-02-22T03:29:43;22.23;;;16.00;;
13291;SDS011;6714;53.056;8.690;2023-02-22T03:32:27;21.83;;;16.40;;
13291;SDS011;6714;53.056;8.690;2023-02-22T03:35:12;19.60;;;14.77;;
13291;SDS011;6714;53.056;8.690;2023-02-22T03:37:55;22.50;;;15.67;;
13291;SDS011;6714;53.056;8.690;2023-02-22T03:40:42;20.73;;;15.03;;
13291;SDS011;6714;53.056;8.690;2023-02-22T03:43:26;23.57;;;16.50;;
13291;SDS011;6714;53.056;8.690;2023-02-22T03:46:09;22.27;;;16.17;;
13291;SDS011;6714;53.056;8.690;2023-02-22T03:48:53;19.63;;;14.80;;
13291;SDS011;6714;53.056;8.690;2023-02-22T03:51:36;23.50;;;16.50;;
13291;SDS011;6714;53.056;8.690;2023-02-22T03:54:19;25.93;;;17.60;;
13291;SDS011;6714;53.056;8.690;2023-02-22T03:57:05;19.33;;;15.23;;
13291;SDS011;6714;53.056;8.690;2023-02-22T03:59:49;19.73;;;15.23;;
13291;SDS011;6714;53.056;8.690;2023-02-22T04:02:31;20.27;;;14.63;;
13291;SDS011;6714;53.056;8.690;2023-02-22T04:05:14;18.90;;;13.63;;
13291;SDS011;6714;53.056;8.690;2023-02-22T04:07:57;22.93;;;16.67;;
13291;SDS011;6714;53.056;8.690;2023-02-22T04:10:39;23.13;;;16.53;;
13291;SDS011;6714;53.056;8.690;2023-02-22T04:13:23;22.47;;;16.30;;
13291;SDS011;6714;53.056;8.690;2023-02-22T04:16:06;22.47;;;15.47;;
13291;SDS011;6714;53.056;8.690;2023-02-22T04:18:48;23.80;;;17.07;;
13291;SDS011;6714;53.056;8.690;2023-02-22T04:21:31;23.93;;;16.47;;
13291;SDS011;6714;53.056;8.690;2023-02-22T04:24:13;22.77;;;16.43;;
13291;SDS011;6714;53.056;8.690;2023-02-22T04:26:55;21.83;;;15.83;;
13291;SDS011;6714;53.056;8.690;2023-02-22T04:29:39;19.93;;;14.67;;
13291;SDS011;6714;53.056;8.690;2023-02-22T04:32:21;19.67;;;14.37;;
13291;SDS011;6714;53.056;8.690;2023-02-22T04:35:03;20.23;;;14.77;;
13291;SDS011;6714;53.056;8.690;2023-02-22T04:37:46;19.30;;;14.53;;
13291;SDS011;6714;53.056;8.690;2023-02-22T04:40:28;20.03;;;13.80;;
13291;SDS011;6714;53.056;8.690;2023-02-22T04:43:10;17.00;;;12.67;;
13291;SDS011;6714;53.056;8.690;2023-02-22T04:45:54;19.37;;;14.23;;
13291;SDS011;6714;53.056;8.690;2023-02-22T04:48:37;18.33;;;13.50;;
13291;SDS011;6714;53.056;8.690;2023-02-22T04:51:19;19.27;;;13.30;;
13291;SDS011;6714;53.056;8.690;2023-02-22T04:54:01;18.00;;;12.63;;
13291;SDS011;6714;53.056;8.690;2023-02-22T04:56:44;16.17;;;12.23;;
13291;SDS011;6714;53.056;8.690;2023-02-22T04:59:26;15.63;;;11.57;;
13291;SDS011;6714;53.056;8.690;2023-02-22T05:02:09;16.93;;;13.00;;
13291;SDS011;6714;53.056;8.690;2023-02-22T05:04:52;20.37;;;14.10;;
13291;SDS011;6714;53.056;8.690;2023-02-22T05:07:34;25.10;;;16.87;;
13291;SDS011;6714;53.056;8.690;2023-02-22T05:10:16;20.27;;;14.10;;
13291;SDS011;6714;53.056;8.690;2023-02-22T05:12:59;21.23;;;14.63;;
13291;SDS011;6714;53.056;8.690;2023-02-22T05:15:41;23.47;;;17.10;;
13291;SDS011;6714;53.056;8.690;2023-02-22T05:18:24;27.93;;;19.23;;
13291;SDS011;6714;53.056;8.690;2023-02-22T05:21:06;29.50;;;19.00;;
13291;SDS011;6714;53.056;8.690;2023-02-22T05:23:49;22.80;;;16.03;;
13291;SDS011;6714;53.056;8.690;2023-02-22T05:26:31;26.13;;;16.33;;
13291;SDS011;6714;53.056;8.690;2023-02-22T05:29:13;27.37;;;18.17;;
13291;SDS011;6714;53.056;8.690;2023-02-22T05:31:55;25.00;;;16.03;;
13291;SDS011;6714;53.056;8.690;2023-02-22T05:34:39;26.77;;;18.67;;
13291;SDS011;6714;53.056;8.690;2023-02-22T05:37:21;27.20;;;17.20;;
13291;SDS011;6714;53.056;8.690;2023-02-22T05:40:04;32.80;;;20.70;;
13291;SDS011;6714;53.056;8.690;2023-02-22T05:42:46;26.43;;;18.33;;
13291;SDS011;6714;53.056;8.690;2023-02-22T05:45:29;29.17;;;18.70;;
13291;SDS011;6714;53.056;8.690;2023-02-22T05:48:11;29.63;;;18.67;;
13291;SDS011;6714;53.056;8.690;2023-02-22T05:50:54;22.93;;;15.10;;
13291;SDS011;6714;53.056;8.690;2023-02-22T05:53:37;22.80;;;15.73;;
13291;SDS011;6714;53.056;8.690;2023-02-22T05:56:19;16.57;;;12.27;;
13291;SDS011;6714;53.056;8.690;2023-02-22T05:59:02;20.53;;;13.77;;
13291;SDS011;6714;53.056;8.690;2023-02-22T06:01:44;20.30;;;13.77;;
13291;SDS011;6714;53.056;8.690;2023-02-22T06:04:26;19.60;;;13.63;;
13291;SDS011;6714;53.056;8.690;2023-02-22T06:07:10;18.67;;;13.47;;
13291;SDS011;6714;53.056;8.690;2023-02-22T06:09:53;19.87;;;13.50;;
13291;SDS011;6714;53.056;8.690;2023-02-22T06:12:35;16.57;;;11.90;;
13291;SDS011;6714;53.056;8.690;2023-02-22T06:15:17;18.47;;;13.17;;
13291;SDS011;6714;53.056;8.690;2023-02-22T06:18:00;18.30;;;12.53;;
13291;SDS011;6714;53.056;8.690;2023-02-22T06:20:42;18.13;;;13.23;;
13291;SDS011;6714;53.056;8.690;2023-02-22T06:23:26;12.97;;;10.20;;
13291;SDS011;6714;53.056;8.690;2023-02-22T06:26:08;18.20;;;12.27;;
13291;SDS011;6714;53.056;8.690;2023-02-22T06:28:50;17.37;;;11.57;;
13291;SDS011;6714;53.056;8.690;2023-02-22T06:31:32;15.40;;;10.97;;
13291;SDS011;6714;53.056;8.690;2023-02-22T06:34:15;14.87;;;11.13;;
13291;SDS011;6714;53.056;8.690;2023-02-22T06:36:57;16.30;;;11.57;;
13291;SDS011;6714;53.056;8.690;2023-02-22T06:39:41;14.70;;;11.20;;
13291;SDS011;6714;53.056;8.690;2023-02-22T06:42:23;15.90;;;11.83;;
13291;SDS011;6714;53.056;8.690;2023-02-22T06:45:06;17.17;;;12.43;;
13291;SDS011;6714;53.056;8.690;2023-02-22T06:47:48;15.57;;;11.67;;
13291;SDS011;6714;53.056;8.690;2023-02-22T06:50:30;17.77;;;13.30;;
13291;SDS011;6714;53.056;8.690;2023-02-22T06:53:13;17.70;;;12.67;;
13291;SDS011;6714;53.056;8.690;2023-02-22T06:55:56;17.83;;;12.90;;
13291;SDS011;6714;53.056;8.690;2023-02-22T06:58:39;17.90;;;12.47;;
13291;SDS011;6714;53.056;8.690;2023-02-22T07:01:21;18.83;;;13.13;;
13291;SDS011;6714;53.056;8.690;2023-02-22T07:04:03;17.73;;;12.10;;
13291;SDS011;6714;53.056;8.690;2023-02-22T07:06:45;17.80;;;12.87;;
13291;SDS011;6714;53.056;8.690;2023-02-22T07:09:28;16.20;;;11.17;;
13291;SDS011;6714;53.056;8.690;2023-02-22T07:12:11;17.63;;;12.13;;
13291;SDS011;6714;53.056;8.690;2023-02-22T07:14:53;16.27;;;11.47;;
13291;SDS011;6714;53.056;8.690;2023-02-22T07:17:36;17.83;;;12.57;;
13291;SDS011;6714;53.056;8.690;2023-02-22T07:20:20;18.20;;;12.67;;
13291;SDS011;6714;53.056;8.690;2023-02-22T07:23:03;20.53;;;13.07;;
13291;SDS011;6714;53.056;8.690;2023-02-22T07:25:45;21.67;;;14.77;;
13291;SDS011;6714;53.056;8.690;2023-02-22T07:28:29;16.17;;;11.77;;
13291;SDS011;6714;53.056;8.690;2023-02-22T07:31:11;17.80;;;12.50;;
13291;SDS011;6714;53.056;8.690;2023-02-22T07:33:53;18.27;;;13.07;;
13291;SDS011;6714;53.056;8.690;2023-02-22T07:36:36;16.50;;;12.03;;
13291;SDS011;6714;53.056;8.690;2023-02-22T07:39:18;18.53;;;11.67;;
13291;SDS011;6714;53.056;8.690;2023-02-22T07:42:00;18.87;;;13.13;;
13291;SDS011;6714;53.056;8.690;2023-02-22T07:44:44;17.57;;;13.00;;
13291;SDS011;6714;53.056;8.690;2023-02-22T07:47:26;19.63;;;13.37;;
13291;SDS011;6714;53.056;8.690;2023-02-22T07:50:08;16.47;;;11.73;;
13291;SDS011;6714;53.056;8.690;2023-02-22T07:52:51;16.70;;;11.27;;
13291;SDS011;6714;53.056;8.690;2023-02-22T07:55:33;17.57;;;12.27;;
13291;SDS011;6714;53.056;8.690;2023-02-22T07:58:16;19.47;;;12.13;;
13291;SDS011;6714;53.056;8.690;2023-02-22T08:01:00;17.33;;;11.47;;
13291;SDS011;6714;53.056;8.690;2023-02-22T08:03:42;16.87;;;12.13;;
13291;SDS011;6714;53.056;8.690;2023-02-22T08:06:26;21.40;;;12.17;;
13291;SDS011;6714;53.056;8.690;2023-02-22T08:09:09;19.17;;;12.53;;
13291;SDS011;6714;53.056;8.690;2023-02-22T08:11:51;19.80;;;11.47;;
13291;SDS011;6714;53.056;8.690;2023-02-22T08:14:33;14.73;;;10.07;;
13291;SDS011;6714;53.056;8.690;2023-02-22T08:17:16;14.03;;;9.67;;
13291;SDS011;6714;53.056;8.690;2023-02-22T08:19:59;12.80;;;9.07;;
13291;SDS011;6714;53.056;8.690;2023-02-22T08:22:42;15.97;;;10.73;;
13291;SDS011;6714;53.056;8.690;2023-02-22T08:25:25;15.53;;;10.20;;
13291;SDS011;6714;53.056;8.690;2023-02-22T08:28:08;20.20;;;13.07;;
13291;SDS011;6714;53.056;8.690;2023-02-22T08:30:51;15.30;;;10.77;;
13291;SDS011;6714;53.056;8.690;2023-02-22T08:33:34;24.13;;;14.60;;
13291;SDS011;6714;53.056;8.690;2023-02-22T08:36:16;18.57;;;11.87;;
13291;SDS011;6714;53.056;8.690;2023-02-22T08:38:59;13.70;;;9.80;;
13291;SDS011;6714;53.056;8.690;2023-02-22T08:41:41;17.27;;;10.57;;
13291;SDS011;6714;53.056;8.690;2023-02-22T08:44:23;12.57;;;9.37;;
13291;SDS011;6714;53.056;8.690;2023-02-22T08:47:05;14.10;;;9.50;;
13291;SDS011;6714;53.056;8.690;2023-02-22T08:49:49;15.20;;;10.23;;
13291;SDS011;6714;53.056;8.690;2023-02-22T08:52:31;14.63;;;9.53;;
13291;SDS011;6714;53.056;8.690;2023-02-22T08:55:14;13.30;;;9.03;;
13291;SDS011;6714;53.056;8.690;2023-02-22T08:57:56;14.90;;;9.90;;
13291;SDS011;6714;53.056;8.690;2023-02-22T09:00:39;12.70;;;9.00;;
13291;SDS011;6714;53.056;8.690;2023-02-22T09:03:23;20.43;;;12.87;;
13291;SDS011;6714;53.056;8.690;2023-02-22T09:06:07;13.13;;;8.97;;
13291;SDS011;6714;53.056;8.690;2023-02-22T09:08:49;15.63;;;10.60;;
13291;SDS011;6714;53.056;8.690;2023-02-22T09:11:31;14.47;;;10.10;;
13291;SDS011;6714;53.056;8.690;2023-02-22T09:14:13;12.87;;;8.57;;
13291;SDS011;6714;53.056;8.690;2023-02-22T09:16:56;17.70;;;10.87;;
13291;SDS011;6714;53.056;8.690;2023-02-22T09:19:39;16.10;;;11.53;;
13291;SDS011;6714;53.056;8.690;2023-02-22T09:22:22;15.50;;;10.50;;
13291;SDS011;6714;53.056;8.690;2023-02-22T09:25:05;17.63;;;11.30;;
13291;SDS011;6714;53.056;8.690;2023-02-22T09:27:48;18.30;;;11.87;;
13291;SDS011;6714;53.056;8.690;2023-02-22T09:30:31;19.47;;;12.97;;
13291;SDS011;6714;53.056;8.690;2023-02-22T09:33:14;21.23;;;13.73;;
13291;SDS011;6714;53.056;8.690;2023-02-22T09:35:56;19.83;;;12.77;;
13291;SDS011;6714;53.056;8.690;2023-02-22T09:38:41;15.93;;;11.20;;
13291;SDS011;6714;53.056;8.690;2023-02-22T09:41:27;18.57;;;11.97;;
13291;SDS011;6714;53.056;8.690;2023-02-22T09:44:15;15.47;;;10.60;;
13291;SDS011;6714;53.056;8.690;2023-02-22T09:47:00;16.93;;;11.73;;
13291;SDS011;6714;53.056;8.690;2023-02-22T09:49:43;17.43;;;11.60;;
13291;SDS011;6714;53.056;8.690;2023-02-22T09:52:27;17.17;;;12.00;;
13291;SDS011;6714;53.056;8.690;2023-02-22T09:55:16;19.00;;;13.13;;
13291;SDS011;6714;53.056;8.690;2023-02-22T09:58:05;18.23;;;12.67;;
13291;SDS011;6714;53.056;8.690;2023-02-22T10:00:49;18.80;;;12.57;;
13291;SDS011;6714;53.056;8.690;2023-02-22T10:03:33;18.87;;;12.40;;
13291;SDS011;6714;53.056;8.690;2023-02-22T10:06:18;18.73;;;12.47;;
13291;SDS011;6714;53.056;8.690;2023-02-22T10:09:02;19.07;;;12.77;;
13291;SDS011;6714;53.056;8.690;2023-02-22T10:11:51;17.63;;;11.53;;
13291;SDS011;6714;53.056;8.690;2023-02-22T10:17:37;15.33;;;10.57;;
13291;SDS011;6714;53.056;8.690;2023-02-22T10:20:24;18.87;;;11.97;;
13291;SDS011;6714;53.056;8.690;2023-02-22T10:23:11;19.17;;;12.47;;
13291;SDS011;6714;53.056;8.690;2023-02-22T10:25:55;18.07;;;11.67;;
13291;SDS011;6714;53.056;8.690;2023-02-22T10:28:41;19.70;;;13.20;;
13291;SDS011;6714;53.056;8.690;2023-02-22T10:31:25;14.53;;;10.53;;
13291;SDS011;6714;53.056;8.690;2023-02-22T10:34:10;16.37;;;11.60;;
13291;SDS011;6714;53.056;8.690;2023-02-22T10:36:54;19.70;;;12.93;;
13291;SDS011;6714;53.056;8.690;2023-02-22T10:39:38;17.73;;;12.13;;
13291;SDS011;6714;53.056;8.690;2023-02-22T10:42:21;18.03;;;11.47;;
13291;SDS011;6714;53.056;8.690;2023-02-22T10:45:15;16.90;;;11.53;;
13291;SDS011;6714;53.056;8.690;2023-02-22T10:47:59;21.73;;;13.97;;
13291;SDS011;6714;53.056;8.690;2023-02-22T10:50:42;18.97;;;12.20;;
13291;SDS011;6714;53.056;8.690;2023-02-22T10:53:25;16.93;;;11.63;;
13291;SDS011;6714;53.056;8.690;2023-02-22T10:56:08;17.27;;;11.87;;
13291;SDS011;6714;53.056;8.690;2023-02-22T10:58:54;18.60;;;11.87;;
13291;SDS011;6714;53.056;8.690;2023-02-22T11:01:39;17.40;;;12.00;;
13291;SDS011;6714;53.056;8.690;2023-02-22T11:04:23;14.50;;;10.03;;
13291;SDS011;6714;53.056;8.690;2023-02-22T11:07:06;19.97;;;14.33;;
13291;SDS011;6714;53.056;8.690;2023-02-22T11:09:50;19.00;;;13.10;;
13291;SDS011;6714;53.056;8.690;2023-02-22T11:12:33;18.30;;;12.73;;
13291;SDS011;6714;53.056;8.690;2023-02-22T11:15:26;21.73;;;14.13;;
13291;SDS011;6714;53.056;8.690;2023-02-22T11:18:17;15.70;;;10.07;;
13291;SDS011;6714;53.056;8.690;2023-02-22T11:21:03;18.43;;;13.37;;
13291;SDS011;6714;53.056;8.690;2023-02-22T11:23:46;17.97;;;12.90;;
13291;SDS011;6714;53.056;8.690;2023-02-22T11:26:35;17.73;;;12.17;;
13291;SDS011;6714;53.056;8.690;2023-02-22T11:29:19;14.33;;;10.33;;
13291;SDS011;6714;53.056;8.690;2023-02-22T11:32:03;20.97;;;13.87;;
13291;SDS011;6714;53.056;8.690;2023-02-22T11:34:54;17.40;;;11.57;;
13291;SDS011;6714;53.056;8.690;2023-02-22T11:38:12;19.37;;;13.37;;
13291;SDS011;6714;53.056;8.690;2023-02-22T11:41:08;17.77;;;13.67;;
13291;SDS011;6714;53.056;8.690;2023-02-22T11:43:53;18.00;;;13.40;;
13291;SDS011;6714;53.056;8.690;2023-02-22T11:46:35;20.90;;;14.70;;
13291;SDS011;6714;53.056;8.690;2023-02-22T11:49:17;16.53;;;11.73;;
13291;SDS011;6714;53.056;8.690;2023-02-22T11:52:07;14.03;;;10.40;;
13291;SDS011;6714;53.056;8.690;2023-02-22T11:55:01;22.93;;;14.93;;
13291;SDS011;6714;53.056;8.690;2023-02-22T11:57:47;14.77;;;9.80;;
13291;SDS011;6714;53.056;8.690;2023-02-22T12:00:33;13.97;;;10.87;;
13291;SDS011;6714;53.056;8.690;2023-02-22T12:03:24;20.47;;;14.27;;
13291;SDS011;6714;53.056;8.690;2023-02-22T12:06:10;16.57;;;11.80;;
13291;SDS011;6714;53.056;8.690;2023-02-22T12:09:02;14.30;;;11.07;;
13291;SDS011;6714;53.056;8.690;2023-02-22T12:11:49;16.60;;;11.83;;
13291;SDS011;6714;53.056;8.690;2023-02-22T12:14:39;21.03;;;14.07;;
13291;SDS011;6714;53.056;8.690;2023-02-22T12:17:32;18.20;;;12.50;;
13291;SDS011;6714;53.056;8.690;2023-02-22T12:20:17;20.70;;;13.50;;
13291;SDS011;6714;53.056;8.690;2023-02-22T12:23:05;20.33;;;14.50;;
13291;SDS011;6714;53.056;8.690;2023-02-22T12:25:54;16.60;;;12.20;;
13291;SDS011;6714;53.056;8.690;2023-02-22T12:28:38;17.27;;;12.23;;
13291;SDS011;6714;53.056;8.690;2023-02-22T12:31:23;17.57;;;13.40;;
13291;SDS011;6714;53.056;8.690;2023-02-22T12:34:06;16.93;;;13.10;;
13291;SDS011;6714;53.056;8.690;2023-02-22T12:36:52;20.87;;;15.57;;
13291;SDS011;6714;53.056;8.690;2023-02-22T12:39:41;13.97;;;10.93;;
13291;SDS011;6714;53.056;8.690;2023-02-22T12:42:29;17.70;;;13.17;;
13291;SDS011;6714;53.056;8.690;2023-02-22T12:45:16;15.50;;;12.20;;
13291;SDS011;6714;53.056;8.690;2023-02-22T12:48:05;14.83;;;11.33;;
13291;SDS011;6714;53.056;8.690;2023-02-22T12:50:51;17.70;;;12.50;;
13291;SDS011;6714;53.056;8.690;2023-02-22T12:53:35;17.30;;;13.40;;
13291;SDS011;6714;53.056;8.690;2023-02-22T12:56:19;16.63;;;12.17;;
13291;SDS011;6714;53.056;8.690;2023-02-22T12:59:04;14.57;;;11.63;;
13291;SDS011;6714;53.056;8.690;2023-02-22T13:01:49;16.33;;;12.20;;
13291;SDS011;6714;53.056;8.690;2023-02-22T13:04:32;17.23;;;13.23;;
13291;SDS011;6714;53.056;8.690;2023-02-22T13:07:28;11.37;;;9.20;;
13291;SDS011;6714;53.056;8.690;2023-02-22T13:13:29;15.30;;;12.00;;
13291;SDS011;6714;53.056;8.690;2023-02-22T13:16:20;17.80;;;13.23;;
13291;SDS011;6714;53.056;8.690;2023-02-22T13:19:05;16.50;;;11.90;;
13291;SDS011;6714;53.056;8.690;2023-02-22T13:21:50;13.03;;;10.17;;
13291;SDS011;6714;53.056;8.690;2023-02-22T13:24:35;12.53;;;10.87;;
13291;SDS011;6714;53.056;8.690;2023-02-22T13:27:21;17.00;;;11.87;;
13291;SDS011;6714;53.056;8.690;2023-02-22T13:30:12;12.50;;;10.80;;
13291;SDS011;6714;53.056;8.690;2023-02-22T13:33:01;13.97;;;11.23;;
13291;SDS011;6714;53.056;8.690;2023-02-22T13:35:51;12.47;;;10.53;;
13291;SDS011;6714;53.056;8.690;2023-02-22T13:38:45;13.70;;;10.57;;
13291;SDS011;6714;53.056;8.690;2023-02-22T13:41:37;12.63;;;10.40;;
13291;SDS011;6714;53.056;8.690;2023-02-22T13:50:42;16.03;;;12.83;;
13291;SDS011;6714;53.056;8.690;2023-02-22T13:53:29;17.07;;;13.90;;
13291;SDS011;6714;53.056;8.690;2023-02-22T13:56:14;14.03;;;11.23;;
13291;SDS011;6714;53.056;8.690;2023-02-22T13:58:57;15.70;;;12.17;;
13291;SDS011;6714;53.056;8.690;2023-02-22T14:01:42;15.30;;;12.53;;
13291;SDS011;6714;53.056;8.690;2023-02-22T14:10:43;16.43;;;13.20;;
13291;SDS011;6714;53.056;8.690;2023-02-22T14:13:26;14.53;;;11.20;;
13291;SDS011;6714;53.056;8.690;2023-02-22T14:16:15;13.37;;;10.77;;
13291;SDS011;6714;53.056;8.690;2023-02-22T14:19:02;12.70;;;10.10;;
13291;SDS011;6714;53.056;8.690;2023-02-22T14:21:55;13.77;;;11.27;;
13291;SDS011;6714;53.056;8.690;2023-02-22T14:24:41;14.03;;;11.00;;
13291;SDS011;6714;53.056;8.690;2023-02-22T14:27:25;15.87;;;11.37;;
13291;SDS011;6714;53.056;8.690;2023-02-22T14:30:22;16.47;;;12.10;;
13291;SDS011;6714;53.056;8.690;2023-02-22T14:36:02;16.93;;;12.77;;
13291;SDS011;6714;53.056;8.690;2023-02-22T14:38:44;16.27;;;12.37;;
13291;SDS011;6714;53.056;8.690;2023-02-22T14:41:28;13.67;;;10.90;;
13291;SDS011;6714;53.056;8.690;2023-02-22T14:44:12;15.73;;;11.20;;
13291;SDS011;6714;53.056;8.690;2023-02-22T14:46:57;14.50;;;11.27;;
13291;SDS011;6714;53.056;8.690;2023-02-22T14:49:41;10.53;;;9.43;;
13291;SDS011;6714;53.056;8.690;2023-02-22T14:52:25;16.13;;;12.80;;
13291;SDS011;6714;53.056;8.690;2023-02-22T14:55:16;14.10;;;10.93;;
13291;SDS011;6714;53.056;8.690;2023-02-22T14:58:02;11.83;;;10.20;;
13291;SDS011;6714;53.056;8.690;2023-02-22T15:00:49;13.33;;;10.27;;
13291;SDS011;6714;53.056;8.690;2023-02-22T15:03:35;12.07;;;9.73;;
13291;SDS011;6714;53.056;8.690;2023-02-22T15:06:19;15.83;;;11.10;;
13291;SDS011;6714;53.056;8.690;2023-02-22T15:09:07;14.77;;;10.70;;
13291;SDS011;6714;53.056;8.690;2023-02-22T15:11:50;13.20;;;10.53;;
13291;SDS011;6714;53.056;8.690;2023-02-22T15:14:33;11.70;;;10.27;;
13291;SDS011;6714;53.056;8.690;2023-02-22T15:17:18;13.27;;;10.73;;
13291;SDS011;6714;53.056;8.690;2023-02-22T15:20:03;14.40;;;11.73;;
13291;SDS011;6714;53.056;8.690;2023-02-22T15:22:49;13.37;;;10.80;;
13291;SDS011;6714;53.056;8.690;2023-02-22T15:25:32;14.10;;;10.87;;
13291;SDS011;6714;53.056;8.690;2023-02-22T15:28:16;14.00;;;10.23;;
13291;SDS011;6714;53.056;8.690;2023-02-22T15:31:15;12.90;;;10.97;;
13291;SDS011;6714;53.056;8.690;2023-02-22T15:34:09;12.60;;;11.13;;
13291;SDS011;6714;53.056;8.690;2023-02-22T15:37:00;16.07;;;11.43;;
13291;SDS011;6714;53.056;8.690;2023-02-22T15:39:43;13.20;;;11.03;;
13291;SDS011;6714;53.056;8.690;2023-02-22T15:42:25;16.90;;;12.77;;
13291;SDS011;6714;53.056;8.690;2023-02-22T15:45:12;14.43;;;11.43;;
13291;SDS011;6714;53.056;8.690;2023-02-22T15:47:56;11.70;;;9.77;;
13291;SDS011;6714;53.056;8.690;2023-02-22T15:50:48;14.30;;;11.10;;
13291;SDS011;6714;53.056;8.690;2023-02-22T15:53:39;13.73;;;11.33;;
13291;SDS011;6714;53.056;8.690;2023-02-22T15:56:23;13.53;;;11.00;;
13291;SDS011;6714;53.056;8.690;2023-02-22T15:59:10;14.53;;;11.43;;
13291;SDS011;6714;53.056;8.690;2023-02-22T16:01:53;13.70;;;11.47;;
13291;SDS011;6714;53.056;8.690;2023-02-22T16:04:36;15.50;;;11.63;;
13291;SDS011;6714;53.056;8.690;2023-02-22T16:07:24;14.77;;;11.30;;
13291;SDS011;6714;53.056;8.690;2023-02-22T16:10:07;15.87;;;11.73;;
13291;SDS011;6714;53.056;8.690;2023-02-22T16:13:06;15.57;;;11.93;;
13291;SDS011;6714;53.056;8.690;2023-02-22T16:18:49;12.87;;;11.00;;
13291;SDS011;6714;53.056;8.690;2023-02-22T16:21:38;13.97;;;11.43;;
13291;SDS011;6714;53.056;8.690;2023-02-22T16:24:34;14.53;;;11.67;;
13291;SDS011;6714;53.056;8.690;2023-02-22T16:27:18;14.97;;;10.87;;
13291;SDS011;6714;53.056;8.690;2023-02-22T16:30:05;12.97;;;10.93;;
13291;SDS011;6714;53.056;8.690;2023-02-22T16:32:49;16.83;;;11.03;;
13291;SDS011;6714;53.056;8.690;2023-02-22T16:35:31;13.80;;;10.93;;
13291;SDS011;6714;53.056;8.690;2023-02-22T16:38:14;13.27;;;10.83;;
13291;SDS011;6714;53.056;8.690;2023-02-22T16:40:58;13.53;;;11.13;;
13291;SDS011;6714;53.056;8.690;2023-02-22T16:43:40;13.17;;;10.70;;
13291;SDS011;6714;53.056;8.690;2023-02-22T16:46:26;14.73;;;10.50;;
13291;SDS011;6714;53.056;8.690;2023-02-22T16:49:08;14.67;;;11.43;;